sensor_id;sensor_type;location;lat;lon;timestamp;P1;durP1;ratioP1;P2;durP2;ratioP2
68866;SDS011;56451;44.804;20.476;2023-11-22T00:01:38;9.70;;;5.80;;
68866;SDS011;56451;44.804;20.476;2023-11-22T00:04:04;9.82;;;5.93;;
68866;SDS011;56451;44.804;20.476;2023-11-22T00:06:30;8.82;;;5.32;;
68866;SDS011;56451;44.804;20.476;2023-11-22T00:08:56;9.90;;;5.22;;
68866;SDS011;56451;44.804;20.476;2023-11-22T00:11:22;9.07;;;5.80;;
68866;SDS011;56451;44.804;20.476;2023-11-22T00:13:48;10.43;;;5.90;;
68866;SDS011;56451;44.804;20.476;2023-11-22T00:16:14;9.98;;;5.95;;
68866;SDS011;56451;44.804;20.476;2023-11-22T00:18:41;7.60;;;5.22;;
68866;SDS011;56451;44.804;20.476;2023-11-22T00:21:07;11.27;;;5.53;;
68866;SDS011;56451;44.804;20.476;2023-11-22T00:23:33;8.90;;;5.63;;
68866;SDS011;56451;44.804;20.476;2023-11-22T00:25:59;9.30;;;5.53;;
68866;SDS011;56451;44.804;20.476;2023-11-22T00:28:25;8.88;;;5.93;;
68866;SDS011;56451;44.804;20.476;2023-11-22T00:30:52;10.23;;;6.43;;
68866;SDS011;56451;44.804;20.476;2023-11-22T00:33:19;7.40;;;5.88;;
68866;SDS011;56451;44.804;20.476;2023-11-22T00:35:45;10.40;;;6.07;;
68866;SDS011;56451;44.804;20.476;2023-11-22T00:38:11;8.65;;;6.00;;
68866;SDS011;56451;44.804;20.476;2023-11-22T00:40:38;9.07;;;6.28;;
68866;SDS011;56451;44.804;20.476;2023-11-22T00:43:04;8.32;;;5.82;;
68866;SDS011;56451;44.804;20.476;2023-11-22T00:45:30;10.07;;;6.78;;
68866;SDS011;56451;44.804;20.476;2023-11-22T00:47:56;10.30;;;7.28;;
68866;SDS011;56451;44.804;20.476;2023-11-22T00:50:22;13.50;;;8.10;;
68866;SDS011;56451;44.804;20.476;2023-11-22T00:52:48;12.10;;;7.70;;
68866;SDS011;56451;44.804;20.476;2023-11-22T00:55:15;16.73;;;8.48;;
68866;SDS011;56451;44.804;20.476;2023-11-22T00:57:41;10.80;;;7.80;;
68866;SDS011;56451;44.804;20.476;2023-11-22T01:00:07;10.88;;;7.88;;
68866;SDS011;56451;44.804;20.476;2023-11-22T01:02:35;12.98;;;7.93;;
68866;SDS011;56451;44.804;20.476;2023-11-22T01:05:05;11.32;;;8.07;;
68866;SDS011;56451;44.804;20.476;2023-11-22T01:07:37;12.97;;;8.00;;
68866;SDS011;56451;44.804;20.476;2023-11-22T01:10:03;13.50;;;8.80;;
68866;SDS011;56451;44.804;20.476;2023-11-22T01:12:31;12.57;;;8.57;;
68866;SDS011;56451;44.804;20.476;2023-11-22T01:14:57;16.52;;;10.07;;
68866;SDS011;56451;44.804;20.476;2023-11-22T01:17:23;15.68;;;10.55;;
68866;SDS011;56451;44.804;20.476;2023-11-22T01:19:49;17.88;;;10.75;;
68866;SDS011;56451;44.804;20.476;2023-11-22T01:22:19;17.00;;;11.52;;
68866;SDS011;56451;44.804;20.476;2023-11-22T01:24:45;18.38;;;12.40;;
68866;SDS011;56451;44.804;20.476;2023-11-22T01:27:11;18.67;;;12.23;;
68866;SDS011;56451;44.804;20.476;2023-11-22T01:29:37;22.08;;;13.93;;
68866;SDS011;56451;44.804;20.476;2023-11-22T01:32:03;18.70;;;12.60;;
68866;SDS011;56451;44.804;20.476;2023-11-22T01:34:29;18.42;;;11.82;;
68866;SDS011;56451;44.804;20.476;2023-11-22T01:36:55;21.20;;;13.23;;
68866;SDS011;56451;44.804;20.476;2023-11-22T01:39:21;20.67;;;13.50;;
68866;SDS011;56451;44.804;20.476;2023-11-22T01:41:46;19.83;;;13.60;;
68866;SDS011;56451;44.804;20.476;2023-11-22T01:44:15;19.63;;;13.38;;
68866;SDS011;56451;44.804;20.476;2023-11-22T01:46:42;18.63;;;13.15;;
68866;SDS011;56451;44.804;20.476;2023-11-22T01:49:09;19.77;;;13.32;;
68866;SDS011;56451;44.804;20.476;2023-11-22T01:51:35;21.23;;;13.40;;
68866;SDS011;56451;44.804;20.476;2023-11-22T01:54:03;18.55;;;12.95;;
68866;SDS011;56451;44.804;20.476;2023-11-22T01:56:31;18.45;;;12.10;;
68866;SDS011;56451;44.804;20.476;2023-11-22T01:58:57;17.63;;;11.52;;
68866;SDS011;56451;44.804;20.476;2023-11-22T02:01:26;15.07;;;11.32;;
68866;SDS011;56451;44.804;20.476;2023-11-22T02:03:52;16.70;;;11.02;;
68866;SDS011;56451;44.804;20.476;2023-11-22T02:06:19;15.20;;;10.60;;
68866;SDS011;56451;44.804;20.476;2023-11-22T02:08:47;17.23;;;11.27;;
68866;SDS011;56451;44.804;20.476;2023-11-22T02:11:16;17.05;;;10.88;;
68866;SDS011;56451;44.804;20.476;2023-11-22T02:13:47;18.60;;;11.40;;
68866;SDS011;56451;44.804;20.476;2023-11-22T02:16:15;19.02;;;11.93;;
68866;SDS011;56451;44.804;20.476;2023-11-22T02:18:45;15.32;;;9.77;;
68866;SDS011;56451;44.804;20.476;2023-11-22T02:21:12;12.93;;;9.00;;
68866;SDS011;56451;44.804;20.476;2023-11-22T02:23:38;12.87;;;8.73;;
68866;SDS011;56451;44.804;20.476;2023-11-22T02:26:04;12.32;;;8.20;;
68866;SDS011;56451;44.804;20.476;2023-11-22T02:28:30;13.52;;;8.13;;
68866;SDS011;56451;44.804;20.476;2023-11-22T02:30:56;11.13;;;7.82;;
68866;SDS011;56451;44.804;20.476;2023-11-22T02:33:22;12.02;;;7.85;;
68866;SDS011;56451;44.804;20.476;2023-11-22T02:35:48;10.73;;;7.40;;
68866;SDS011;56451;44.804;20.476;2023-11-22T02:38:15;12.70;;;7.65;;
68866;SDS011;56451;44.804;20.476;2023-11-22T02:40:43;11.05;;;7.63;;
68866;SDS011;56451;44.804;20.476;2023-11-22T02:43:09;12.30;;;7.78;;
68866;SDS011;56451;44.804;20.476;2023-11-22T02:45:36;14.32;;;7.97;;
68866;SDS011;56451;44.804;20.476;2023-11-22T02:48:04;10.53;;;7.13;;
68866;SDS011;56451;44.804;20.476;2023-11-22T02:50:35;11.23;;;6.80;;
68866;SDS011;56451;44.804;20.476;2023-11-22T02:53:03;12.02;;;6.93;;
68866;SDS011;56451;44.804;20.476;2023-11-22T02:55:29;12.00;;;7.18;;
68866;SDS011;56451;44.804;20.476;2023-11-22T02:57:55;10.05;;;6.57;;
68866;SDS011;56451;44.804;20.476;2023-11-22T03:00:22;10.17;;;6.60;;
68866;SDS011;56451;44.804;20.476;2023-11-22T03:02:49;9.45;;;6.65;;
68866;SDS011;56451;44.804;20.476;2023-11-22T03:05:22;9.48;;;6.55;;
68866;SDS011;56451;44.804;20.476;2023-11-22T03:07:49;10.35;;;6.57;;
68866;SDS011;56451;44.804;20.476;2023-11-22T03:10:18;7.97;;;6.18;;
68866;SDS011;56451;44.804;20.476;2023-11-22T03:12:44;11.07;;;6.70;;
68866;SDS011;56451;44.804;20.476;2023-11-22T03:15:10;8.85;;;6.60;;
68866;SDS011;56451;44.804;20.476;2023-11-22T03:17:37;9.35;;;6.28;;
68866;SDS011;56451;44.804;20.476;2023-11-22T03:20:04;8.80;;;6.03;;
68866;SDS011;56451;44.804;20.476;2023-11-22T03:22:36;8.93;;;6.45;;
68866;SDS011;56451;44.804;20.476;2023-11-22T03:25:03;11.87;;;6.93;;
68866;SDS011;56451;44.804;20.476;2023-11-22T03:27:30;10.93;;;7.20;;
68866;SDS011;56451;44.804;20.476;2023-11-22T03:29:56;15.32;;;9.75;;
68866;SDS011;56451;44.804;20.476;2023-11-22T03:32:23;18.60;;;12.07;;
68866;SDS011;56451;44.804;20.476;2023-11-22T03:36:09;23.55;;;14.15;;
68866;SDS011;56451;44.804;20.476;2023-11-22T03:39:32;25.07;;;16.17;;
68866;SDS011;56451;44.804;20.476;2023-11-22T03:42:54;27.35;;;17.73;;
68866;SDS011;56451;44.804;20.476;2023-11-22T03:46:16;28.30;;;18.77;;
68866;SDS011;56451;44.804;20.476;2023-11-22T03:49:38;28.77;;;18.55;;
68866;SDS011;56451;44.804;20.476;2023-11-22T03:53:00;32.47;;;19.83;;
68866;SDS011;56451;44.804;20.476;2023-11-22T03:56:22;33.40;;;21.07;;
68866;SDS011;56451;44.804;20.476;2023-11-22T03:59:44;32.20;;;20.55;;
68866;SDS011;56451;44.804;20.476;2023-11-22T04:03:06;32.90;;;21.60;;
68866;SDS011;56451;44.804;20.476;2023-11-22T04:06:28;36.10;;;21.55;;
68866;SDS011;56451;44.804;20.476;2023-11-22T04:09:50;36.50;;;22.13;;
68866;SDS011;56451;44.804;20.476;2023-11-22T04:13:12;39.13;;;21.87;;
68866;SDS011;56451;44.804;20.476;2023-11-22T04:16:35;33.17;;;20.30;;
68866;SDS011;56451;44.804;20.476;2023-11-22T04:19:57;36.75;;;21.30;;
68866;SDS011;56451;44.804;20.476;2023-11-22T04:23:19;35.65;;;21.35;;
68866;SDS011;56451;44.804;20.476;2023-11-22T04:26:41;37.65;;;21.50;;
68866;SDS011;56451;44.804;20.476;2023-11-22T04:30:03;32.50;;;20.87;;
68866;SDS011;56451;44.804;20.476;2023-11-22T04:33:25;32.33;;;21.20;;
68866;SDS011;56451;44.804;20.476;2023-11-22T04:36:47;33.80;;;21.25;;
68866;SDS011;56451;44.804;20.476;2023-11-22T04:40:10;31.60;;;20.85;;
68866;SDS011;56451;44.804;20.476;2023-11-22T04:43:32;35.72;;;22.08;;
68866;SDS011;56451;44.804;20.476;2023-11-22T04:46:54;33.77;;;20.87;;
68866;SDS011;56451;44.804;20.476;2023-11-22T04:50:16;35.45;;;21.98;;
68866;SDS011;56451;44.804;20.476;2023-11-22T04:53:38;37.55;;;22.15;;
68866;SDS011;56451;44.804;20.476;2023-11-22T04:57:00;38.92;;;22.35;;
68866;SDS011;56451;44.804;20.476;2023-11-22T05:00:22;38.38;;;23.10;;
68866;SDS011;56451;44.804;20.476;2023-11-22T05:03:44;39.97;;;21.93;;
68866;SDS011;56451;44.804;20.476;2023-11-22T05:07:07;40.35;;;23.00;;
68866;SDS011;56451;44.804;20.476;2023-11-22T05:10:29;37.85;;;22.67;;
68866;SDS011;56451;44.804;20.476;2023-11-22T05:13:51;38.88;;;23.15;;
68866;SDS011;56451;44.804;20.476;2023-11-22T05:17:13;35.08;;;21.27;;
68866;SDS011;56451;44.804;20.476;2023-11-22T05:20:35;35.83;;;21.83;;
68866;SDS011;56451;44.804;20.476;2023-11-22T05:23:57;40.47;;;23.25;;
68866;SDS011;56451;44.804;20.476;2023-11-22T05:27:18;37.78;;;23.17;;
68866;SDS011;56451;44.804;20.476;2023-11-22T05:30:40;39.92;;;21.73;;
68866;SDS011;56451;44.804;20.476;2023-11-22T05:34:02;37.88;;;23.02;;
68866;SDS011;56451;44.804;20.476;2023-11-22T05:37:24;42.43;;;22.77;;
68866;SDS011;56451;44.804;20.476;2023-11-22T05:40:47;38.33;;;22.10;;
68866;SDS011;56451;44.804;20.476;2023-11-22T05:44:09;41.53;;;22.77;;
68866;SDS011;56451;44.804;20.476;2023-11-22T05:47:31;44.80;;;23.67;;
68866;SDS011;56451;44.804;20.476;2023-11-22T05:50:53;41.17;;;23.30;;
68866;SDS011;56451;44.804;20.476;2023-11-22T05:54:15;44.50;;;25.00;;
68866;SDS011;56451;44.804;20.476;2023-11-22T05:57:37;41.47;;;24.45;;
68866;SDS011;56451;44.804;20.476;2023-11-22T06:00:59;41.75;;;23.63;;
68866;SDS011;56451;44.804;20.476;2023-11-22T06:04:22;46.05;;;24.90;;
68866;SDS011;56451;44.804;20.476;2023-11-22T06:07:44;47.53;;;24.98;;
68866;SDS011;56451;44.804;20.476;2023-11-22T06:11:06;50.07;;;24.67;;
68866;SDS011;56451;44.804;20.476;2023-11-22T06:14:28;52.15;;;26.45;;
68866;SDS011;56451;44.804;20.476;2023-11-22T06:17:51;48.95;;;26.27;;
